Terminal Aerodrome Forecast
Issued by NWS

Current Version | Previous Version | Text Only | Print | Product List | Glossary On
Versions: 1 2 3 4 5 6 7 8 9 10 11 12 13 14 15
000
FTUS42 KTAE 240944 AAA
TAFDHN
TAF AMD
KDHN 240944Z 2410/2506 00000KT P6SM SCT015
     FM241400 VRB05KT P6SM -SHRA SCT020 BKN030
     FM241600 20008KT 6SM -TSRA BKN030CB
     FM242300 VRB05KT P6SM BKN030=

USA.gov is the U.S. government's official web portal to all federal, state and local government web resources and services.